TAF and METAR

METAR for Urgench International Airport

UTNU 221230Z 04006KT CAVOK 20/00 Q1018 R31/CLRD70 NOSIG
Report created 22. okt 14:30
wind 6 knots from NE (040°) Clear sky Temperature 20° with dewpoint at 0° (Humidity 26.18%) Pressure 1018 hPa

TAF for Urgench International Airport

TAF UTNU 221058Z 2212/2312 02010G20KT 7000 NSC TEMPO 2212/2218 VRBO4KT 3000 BR
Report created 22. okt 12:58

between 22. okt 14:00 - 23. okt 14:00

wind 10 knots from NNE (020°) with gusts up to 20 knots visibility 7000 meters No significant clouds.

temporarily between 22. okt 14:00 - 22. okt 20:00

Urgench International Airport in Uzbekistan at 98m

Latest 5 airports